createdAt,value
2019-03-28T00:01:36.062Z,8.63
2019-03-28T00:04:04.831Z,12.80
2019-03-28T00:06:33.520Z,8.43
2019-03-28T00:09:02.147Z,7.85
2019-03-28T00:11:30.832Z,8.95
2019-03-28T00:13:59.499Z,9.85
2019-03-28T00:16:28.135Z,8.35
2019-03-28T00:18:57.623Z,6.30
2019-03-28T00:21:26.319Z,8.73
2019-03-28T00:24:11.475Z,9.80
2019-03-28T00:26:40.107Z,10.32
2019-03-28T00:29:08.723Z,13.68
2019-03-28T00:31:37.491Z,9.03
2019-03-28T00:34:06.171Z,8.80
2019-03-28T00:36:34.803Z,7.53
2019-03-28T00:39:03.766Z,7.70
2019-03-28T00:41:32.367Z,8.65
2019-03-28T00:44:01.019Z,9.10
2019-03-28T00:46:29.639Z,10.90
2019-03-28T00:48:58.271Z,9.60
2019-03-28T00:51:26.883Z,6.55
2019-03-28T00:53:56.109Z,10.08
2019-03-28T00:56:24.896Z,5.72
2019-03-28T00:58:53.531Z,14.43
2019-03-28T01:01:22.217Z,11.25
2019-03-28T01:03:50.996Z,9.18
2019-03-28T01:06:19.750Z,9.58
2019-03-28T01:08:48.380Z,11.83
2019-03-28T01:11:17.068Z,9.53
2019-03-28T01:13:45.785Z,13.50
2019-03-28T01:16:14.417Z,12.53
2019-03-28T01:18:43.015Z,11.30
2019-03-28T01:21:11.785Z,10.85
2019-03-28T01:23:40.403Z,11.85
2019-03-28T01:26:09.105Z,11.25
2019-03-28T01:28:37.721Z,7.22
2019-03-28T01:31:06.340Z,10.58
2019-03-28T01:33:34.952Z,8.73
2019-03-28T01:36:03.652Z,8.90
2019-03-28T01:38:32.259Z,9.70
2019-03-28T01:41:00.923Z,10.60
2019-03-28T01:43:29.539Z,17.48
2019-03-28T01:45:58.244Z,9.93
2019-03-28T01:48:26.870Z,12.20
2019-03-28T01:50:55.527Z,12.03
2019-03-28T01:53:24.147Z,13.22
2019-03-28T01:55:52.831Z,9.80
2019-03-28T01:58:21.546Z,15.13
2019-03-28T02:00:50.152Z,12.90
2019-03-28T02:03:18.779Z,9.45
2019-03-28T02:05:47.402Z,15.28
2019-03-28T02:08:16.039Z,11.28
2019-03-28T02:10:44.722Z,13.62
2019-03-28T02:13:13.372Z,12.75
2019-03-28T02:15:42.026Z,11.50
2019-03-28T02:18:10.739Z,15.28
2019-03-28T02:20:39.362Z,10.85
2019-03-28T02:23:08.055Z,10.00
2019-03-28T02:25:36.671Z,7.65
2019-03-28T02:28:05.359Z,9.95
2019-03-28T02:30:34.529Z,15.48
2019-03-28T02:33:03.305Z,11.60
2019-03-28T02:35:31.937Z,14.15
2019-03-28T02:38:00.744Z,12.82
2019-03-28T02:40:29.514Z,11.85
2019-03-28T02:42:58.408Z,14.83
2019-03-28T02:45:27.168Z,7.90
2019-03-28T02:47:55.779Z,8.85
2019-03-28T02:50:24.493Z,9.85
2019-03-28T02:52:53.176Z,9.68
2019-03-28T02:55:21.805Z,8.90
2019-03-28T02:57:50.424Z,13.03
2019-03-28T03:00:19.200Z,10.25
2019-03-28T03:02:47.807Z,11.83
2019-03-28T03:05:16.562Z,9.63
2019-03-28T03:07:45.178Z,10.25
2019-03-28T03:10:14.236Z,8.75
2019-03-28T03:12:42.983Z,11.33
2019-03-28T03:15:13.316Z,9.90
2019-03-28T03:17:42.045Z,11.83
2019-03-28T03:20:10.960Z,9.68
2019-03-28T03:22:39.619Z,10.32
2019-03-28T03:25:08.876Z,12.25
2019-03-28T03:27:37.632Z,9.30
2019-03-28T03:30:10.161Z,10.63
2019-03-28T03:32:38.791Z,9.55
2019-03-28T03:35:07.768Z,10.90
2019-03-28T03:37:36.382Z,9.65
2019-03-28T03:40:09.168Z,10.63
2019-03-28T03:42:37.864Z,9.20
2019-03-28T03:45:09.031Z,9.38
2019-03-28T03:47:37.848Z,13.15
2019-03-28T03:50:07.116Z,10.72
2019-03-28T03:52:35.737Z,10.78
2019-03-28T03:55:06.315Z,18.00
2019-03-28T03:57:34.983Z,11.35
2019-03-28T04:00:05.567Z,9.48
2019-03-28T04:02:34.258Z,13.98
2019-03-28T04:05:02.876Z,11.65
2019-03-28T04:07:31.491Z,10.43
2019-03-28T04:10:00.585Z,11.48
2019-03-28T04:12:29.332Z,11.97
2019-03-28T04:14:57.968Z,13.88
2019-03-28T04:17:26.599Z,11.10
2019-03-28T04:19:55.211Z,13.65
2019-03-28T04:22:23.840Z,11.43
2019-03-28T04:24:52.457Z,14.23
2019-03-28T04:27:21.334Z,12.47
2019-03-28T04:29:50.021Z,10.82
2019-03-28T04:32:18.696Z,14.33
2019-03-28T04:34:47.299Z,9.13
2019-03-28T04:37:16.034Z,9.83
2019-03-28T04:39:44.607Z,11.90
2019-03-28T04:42:13.420Z,9.40
2019-03-28T04:44:42.031Z,11.28
2019-03-28T04:47:10.973Z,9.38
2019-03-28T04:49:39.565Z,8.83
2019-03-28T04:52:08.263Z,9.73
2019-03-28T04:54:36.879Z,8.13
2019-03-28T04:57:05.667Z,10.43
2019-03-28T04:59:34.286Z,9.68
2019-03-28T05:02:04.835Z,11.68
2019-03-28T05:04:33.194Z,10.40
2019-03-28T05:07:01.806Z,8.70
2019-03-28T05:09:30.436Z,11.83
2019-03-28T05:11:59.433Z,8.50
2019-03-28T05:14:28.087Z,12.40
2019-03-28T05:16:56.700Z,10.45
2019-03-28T05:19:25.530Z,13.30
2019-03-28T05:21:54.144Z,9.30
2019-03-28T05:24:25.293Z,13.30
2019-03-28T05:26:53.056Z,11.18
2019-03-28T05:29:21.658Z,14.87
2019-03-28T05:31:50.289Z,10.03
2019-03-28T05:34:19.031Z,13.20
2019-03-28T05:36:47.747Z,11.78
2019-03-28T05:39:16.347Z,14.73
2019-03-28T05:41:45.020Z,12.65
2019-03-28T05:44:13.590Z,8.78
2019-03-28T05:46:42.201Z,11.12
2019-03-28T05:49:10.819Z,9.40
2019-03-28T05:51:39.435Z,11.40
2019-03-28T05:54:08.059Z,13.32
2019-03-28T05:56:36.689Z,11.70
2019-03-28T05:59:10.722Z,12.35
2019-03-28T06:01:35.707Z,11.45
2019-03-28T06:04:04.483Z,13.08
2019-03-28T06:06:33.103Z,9.75
2019-03-28T06:09:01.787Z,10.48
2019-03-28T06:11:30.403Z,14.00
2019-03-28T06:13:59.031Z,14.55
2019-03-28T06:16:27.728Z,13.15
2019-03-28T06:18:56.343Z,13.80
2019-03-28T06:21:24.971Z,11.57
2019-03-28T06:23:53.659Z,10.82
2019-03-28T06:26:22.297Z,11.45
2019-03-28T06:28:51.374Z,13.48
2019-03-28T06:31:20.043Z,9.38
2019-03-28T06:33:48.663Z,10.58
2019-03-28T06:36:17.414Z,20.27
2019-03-28T06:38:46.008Z,14.35
2019-03-28T06:41:14.704Z,11.33
2019-03-28T06:43:43.325Z,14.05
2019-03-28T06:46:11.971Z,9.88
2019-03-28T06:48:40.661Z,11.33
2019-03-28T06:51:09.275Z,10.13
2019-03-28T06:53:38.317Z,12.80
2019-03-28T06:56:07.085Z,9.10
2019-03-28T06:58:35.716Z,11.48
2019-03-28T07:01:04.401Z,12.15
2019-03-28T07:03:33.025Z,9.90
2019-03-28T07:06:01.683Z,7.87
2019-03-28T07:08:30.273Z,13.72
2019-03-28T07:10:58.903Z,15.98
2019-03-28T07:13:27.523Z,7.60
2019-03-28T07:15:56.140Z,8.78
2019-03-28T07:18:24.792Z,8.58
2019-03-28T07:20:53.407Z,12.18
2019-03-28T07:23:22.101Z,10.85
2019-03-28T07:25:50.732Z,10.00
2019-03-28T07:28:19.353Z,13.30
2019-03-28T07:30:47.973Z,10.53
2019-03-28T07:33:16.663Z,10.55
2019-03-28T07:35:45.287Z,8.13
2019-03-28T07:38:14.044Z,8.55
2019-03-28T07:40:42.743Z,6.15
2019-03-28T07:43:11.359Z,10.45
2019-03-28T07:45:40.939Z,10.50
2019-03-28T07:48:09.726Z,8.10
2019-03-28T07:50:38.359Z,13.68
2019-03-28T07:53:06.966Z,6.72
2019-03-28T07:55:35.655Z,9.38
2019-03-28T07:58:07.374Z,9.38
2019-03-28T08:00:34.671Z,7.30
2019-03-28T08:03:03.306Z,7.65
2019-03-28T08:05:31.915Z,7.90
2019-03-28T08:08:00.611Z,8.03
2019-03-28T08:10:29.230Z,7.87
2019-03-28T08:12:57.897Z,8.03
2019-03-28T08:15:26.516Z,10.70
2019-03-28T08:17:55.163Z,8.08
2019-03-28T08:20:23.843Z,9.58
2019-03-28T08:22:52.461Z,7.67
2019-03-28T08:25:21.084Z,10.23
2019-03-28T08:27:49.767Z,7.60
2019-03-28T08:30:21.467Z,7.37
2019-03-28T08:32:50.151Z,6.92
2019-03-28T08:35:18.858Z,6.28
2019-03-28T08:37:47.703Z,6.60
2019-03-28T08:40:19.423Z,9.05
2019-03-28T08:42:48.035Z,6.12
2019-03-28T08:45:16.872Z,7.15
2019-03-28T08:47:45.488Z,6.92
2019-03-28T08:50:14.248Z,8.90
2019-03-28T08:52:42.863Z,7.05
2019-03-28T08:55:11.933Z,7.92
2019-03-28T08:57:40.544Z,7.55
2019-03-28T09:00:10.886Z,9.33
2019-03-28T09:02:39.509Z,8.18
2019-03-28T09:05:08.468Z,7.87
2019-03-28T09:07:37.148Z,7.87
2019-03-28T09:10:07.315Z,10.85
2019-03-28T09:12:36.077Z,6.90
2019-03-28T09:15:08.244Z,6.67
2019-03-28T09:17:37.012Z,9.30
2019-03-28T09:20:09.330Z,8.78
2019-03-28T09:22:39.130Z,8.75
2019-03-28T09:25:08.180Z,8.15
2019-03-28T09:27:36.948Z,7.87
2019-03-28T09:30:08.036Z,6.62
2019-03-28T09:32:37.018Z,10.53
2019-03-28T09:35:06.784Z,8.08
2019-03-28T09:37:35.463Z,6.30
2019-03-28T09:40:05.131Z,8.90
2019-03-28T09:42:33.794Z,6.33
2019-03-28T09:45:02.558Z,8.28
2019-03-28T09:47:31.254Z,7.65
2019-03-28T09:49:59.939Z,9.50
2019-03-28T09:52:28.552Z,7.33
2019-03-28T09:54:57.182Z,7.72
2019-03-28T09:57:25.846Z,6.60
2019-03-28T09:59:54.472Z,8.58
2019-03-28T10:02:23.219Z,5.95
2019-03-28T10:04:51.904Z,6.17
2019-03-28T10:07:20.551Z,7.25
2019-03-28T10:09:49.473Z,7.35
2019-03-28T10:12:18.183Z,7.30
2019-03-28T10:14:46.904Z,6.55
2019-03-28T10:17:15.543Z,7.42
2019-03-28T10:19:44.155Z,7.35
2019-03-28T10:22:12.777Z,5.30
2019-03-28T10:24:41.466Z,11.08
2019-03-28T10:27:10.187Z,6.28
2019-03-28T10:29:38.795Z,9.48
2019-03-28T10:32:07.487Z,7.60
2019-03-28T10:34:36.251Z,8.28
2019-03-28T10:37:05.007Z,7.42
2019-03-28T10:39:33.636Z,9.43
2019-03-28T10:42:02.323Z,8.68
2019-03-28T10:44:31.007Z,7.72
2019-03-28T10:46:59.635Z,6.03
2019-03-28T10:49:28.334Z,6.03
2019-03-28T10:51:56.951Z,6.17
2019-03-28T10:54:25.923Z,5.20
2019-03-28T10:56:57.529Z,7.03
2019-03-28T10:59:25.475Z,5.33
2019-03-28T11:01:54.412Z,6.62
2019-03-28T11:04:23.029Z,6.70
2019-03-28T11:06:51.793Z,6.87
2019-03-28T11:09:20.475Z,5.70
2019-03-28T11:11:49.104Z,7.62
2019-03-28T11:14:17.727Z,5.35
2019-03-28T11:16:48.193Z,7.53
2019-03-28T11:19:17.538Z,6.75
2019-03-28T11:21:46.328Z,9.45
2019-03-28T11:24:15.012Z,7.22
2019-03-28T11:26:43.633Z,9.23
2019-03-28T11:29:12.251Z,9.68
2019-03-28T11:31:47.760Z,7.05
2019-03-28T11:34:11.290Z,5.78
2019-03-28T11:36:39.910Z,5.97
2019-03-28T11:39:08.703Z,5.55
2019-03-28T11:41:37.395Z,12.20
2019-03-28T11:44:06.157Z,6.45
2019-03-28T11:46:34.763Z,4.65
2019-03-28T11:49:03.463Z,5.83
2019-03-28T11:51:32.084Z,6.17
2019-03-28T11:54:00.702Z,6.37
2019-03-28T11:56:29.333Z,8.00
2019-03-28T11:58:57.951Z,5.35
2019-03-28T12:01:26.634Z,5.42
2019-03-28T12:03:55.302Z,5.62
2019-03-28T12:06:26.916Z,6.92
2019-03-28T12:08:55.994Z,6.53
2019-03-28T12:11:25.083Z,6.10
2019-03-28T12:13:53.699Z,6.72
2019-03-28T12:16:22.321Z,6.10
2019-03-28T12:18:52.616Z,6.72
2019-03-28T12:21:21.318Z,7.62
2019-03-28T12:23:49.920Z,7.35
2019-03-28T12:26:18.595Z,6.97
2019-03-28T12:28:47.206Z,6.12
2019-03-28T12:31:15.920Z,7.50
2019-03-28T12:33:44.624Z,7.83
2019-03-28T12:36:13.311Z,6.92
2019-03-28T12:38:42.067Z,8.50
2019-03-28T12:41:10.799Z,8.23
2019-03-28T12:43:39.409Z,9.10
2019-03-28T12:46:08.093Z,9.30
2019-03-28T12:48:36.751Z,7.70
2019-03-28T12:51:05.443Z,7.97
2019-03-28T12:53:34.131Z,8.00
2019-03-28T12:56:02.819Z,6.87
2019-03-28T12:58:31.428Z,7.92
2019-03-28T13:01:00.050Z,6.85
2019-03-28T13:03:34.762Z,8.83
2019-03-28T13:05:59.008Z,9.08
2019-03-28T13:08:27.615Z,7.00
2019-03-28T13:10:56.243Z,8.00
2019-03-28T13:13:24.858Z,5.90
2019-03-28T13:15:53.551Z,7.50
2019-03-28T13:18:22.161Z,6.60
2019-03-28T13:20:50.783Z,5.55
2019-03-28T13:23:19.471Z,7.75
2019-03-28T13:25:48.323Z,8.23
2019-03-28T13:28:16.995Z,7.37
2019-03-28T13:30:45.677Z,7.90
2019-03-28T13:33:14.407Z,11.05
2019-03-28T13:35:43.066Z,8.53
2019-03-28T13:38:11.728Z,8.28
2019-03-28T13:40:41.771Z,17.45
2019-03-28T13:43:10.502Z,8.53
2019-03-28T13:45:39.231Z,9.63
2019-03-28T13:48:13.697Z,6.20
2019-03-28T13:50:41.024Z,6.58
2019-03-28T13:53:09.700Z,7.45
2019-03-28T13:55:38.342Z,5.70
2019-03-28T13:58:07.275Z,6.80
2019-03-28T14:00:36.316Z,5.53
2019-03-28T14:03:05.240Z,5.20
2019-03-28T14:05:33.947Z,9.85
2019-03-28T14:08:02.727Z,8.50
2019-03-28T14:10:31.454Z,7.10
2019-03-28T14:13:00.102Z,6.70
2019-03-28T14:15:28.919Z,6.20
2019-03-28T14:17:57.569Z,13.95
2019-03-28T14:20:26.369Z,8.25
2019-03-28T14:22:55.094Z,8.53
2019-03-28T14:25:23.843Z,8.85
2019-03-28T14:27:52.672Z,9.25
2019-03-28T14:30:21.407Z,6.90
2019-03-28T14:32:53.380Z,7.40
2019-03-28T14:35:20.425Z,8.80
2019-03-28T14:37:49.254Z,7.35
2019-03-28T14:40:18.011Z,6.17
2019-03-28T14:42:46.825Z,7.58
2019-03-28T14:45:15.737Z,6.58
2019-03-28T14:47:44.389Z,5.78
2019-03-28T14:50:13.710Z,6.05
2019-03-28T14:52:42.439Z,11.15
2019-03-28T14:55:12.870Z,7.47
2019-03-28T14:57:41.879Z,7.53
2019-03-28T15:00:16.670Z,9.55
2019-03-28T15:02:45.334Z,6.05
2019-03-28T15:05:13.993Z,7.78
2019-03-28T15:07:42.650Z,8.38
2019-03-28T15:10:11.541Z,6.08
2019-03-28T15:12:41.464Z,5.00
2019-03-28T15:15:11.739Z,6.92
2019-03-28T15:17:40.385Z,6.22
2019-03-28T15:20:09.198Z,11.08
2019-03-28T15:22:37.841Z,6.55
2019-03-28T15:25:07.362Z,7.12
2019-03-28T15:27:36.023Z,9.03
2019-03-28T15:30:07.774Z,6.47
2019-03-28T15:32:36.453Z,5.87
2019-03-28T15:35:05.843Z,7.75
2019-03-28T15:37:34.502Z,7.72
2019-03-28T15:40:04.295Z,8.60
2019-03-28T15:42:32.947Z,8.23
2019-03-28T15:45:01.598Z,6.20
2019-03-28T15:47:30.263Z,6.62
2019-03-28T15:49:58.922Z,8.73
2019-03-28T15:52:27.755Z,8.40
2019-03-28T15:54:56.374Z,7.25
2019-03-28T15:57:25.759Z,6.67
2019-03-28T15:59:54.471Z,7.25
2019-03-28T16:02:25.702Z,7.08
2019-03-28T16:04:54.352Z,8.58
2019-03-28T16:07:23.002Z,7.03
2019-03-28T16:09:53.208Z,9.50
2019-03-28T16:12:21.851Z,9.23
2019-03-28T16:14:50.518Z,13.90
2019-03-28T16:17:19.178Z,9.00
2019-03-28T16:19:47.843Z,10.50
2019-03-28T16:22:16.486Z,8.80
2019-03-28T16:24:46.554Z,10.70
2019-03-28T16:27:16.951Z,12.98
2019-03-28T16:29:45.633Z,10.48
2019-03-28T16:32:16.181Z,8.75
2019-03-28T16:34:44.583Z,12.25
2019-03-28T16:37:13.260Z,15.13
2019-03-28T16:39:44.594Z,10.53
2019-03-28T16:42:13.416Z,12.58
2019-03-28T16:44:42.065Z,15.83
2019-03-28T16:47:10.736Z,11.75
2019-03-28T16:49:39.385Z,12.75
2019-03-28T16:52:08.115Z,10.13
2019-03-28T16:54:36.801Z,19.98
2019-03-28T16:57:05.520Z,13.75
2019-03-28T16:59:34.257Z,10.72
2019-03-28T17:02:02.922Z,12.03
2019-03-28T17:04:31.580Z,12.28
2019-03-28T17:07:01.189Z,15.05
2019-03-28T17:09:31.070Z,11.25
2019-03-28T17:11:59.737Z,11.55
2019-03-28T17:14:28.388Z,11.10
2019-03-28T17:16:57.057Z,11.85
2019-03-28T17:19:27.336Z,13.48
2019-03-28T17:21:55.990Z,13.28
2019-03-28T17:24:25.899Z,14.33
2019-03-28T17:26:54.591Z,14.78
2019-03-28T17:29:23.305Z,17.48
2019-03-28T17:31:52.027Z,13.78
2019-03-28T17:34:33.622Z,14.95
2019-03-28T17:36:51.063Z,17.23
2019-03-28T17:39:19.722Z,14.78
2019-03-28T17:41:48.376Z,14.75
2019-03-28T17:44:17.062Z,14.73
2019-03-28T17:46:45.796Z,23.75
2019-03-28T17:49:14.457Z,19.17
2019-03-28T17:51:43.121Z,18.60
2019-03-28T17:54:11.959Z,18.40
2019-03-28T17:56:40.851Z,16.48
2019-03-28T17:59:09.499Z,17.73
2019-03-28T18:01:38.165Z,18.55
2019-03-28T18:04:06.899Z,16.87
2019-03-28T18:06:35.698Z,20.20
2019-03-28T18:09:07.045Z,12.55
2019-03-28T18:11:35.681Z,16.30
2019-03-28T18:14:04.977Z,15.72
2019-03-28T18:16:34.203Z,18.92
2019-03-28T18:19:02.870Z,16.42
2019-03-28T18:21:31.541Z,14.13
2019-03-28T18:24:00.200Z,17.10
2019-03-28T18:26:31.590Z,18.17
2019-03-28T18:29:00.242Z,15.75
2019-03-28T18:31:28.967Z,17.52
2019-03-28T18:33:57.650Z,15.10
2019-03-28T18:36:26.883Z,18.45
2019-03-28T18:38:57.282Z,18.40
2019-03-28T18:41:26.009Z,13.28
2019-03-28T18:43:56.219Z,18.10
2019-03-28T18:46:26.114Z,17.60
2019-03-28T18:48:55.125Z,14.00
2019-03-28T18:51:26.607Z,20.12
2019-03-28T18:53:55.253Z,14.78
2019-03-28T18:56:23.925Z,19.85
2019-03-28T18:58:52.579Z,18.50
2019-03-28T19:01:21.235Z,18.02
2019-03-28T19:03:49.894Z,15.03
2019-03-28T19:06:18.627Z,20.62
2019-03-28T19:08:47.290Z,25.50
2019-03-28T19:11:15.941Z,21.80
2019-03-28T19:13:44.695Z,18.20
2019-03-28T19:16:13.349Z,17.67
2019-03-28T19:18:42.070Z,21.00
2019-03-28T19:21:10.739Z,32.00
2019-03-28T19:23:39.393Z,19.10
2019-03-28T19:26:10.558Z,17.42
2019-03-28T19:28:38.572Z,17.37
2019-03-28T19:31:07.229Z,17.52
2019-03-28T19:33:38.209Z,22.75
2019-03-28T19:36:06.365Z,23.65
2019-03-28T19:38:35.762Z,19.50
2019-03-28T19:41:04.558Z,25.15
2019-03-28T19:43:33.968Z,29.37
2019-03-28T19:46:02.689Z,23.98
2019-03-28T19:48:31.341Z,26.70
2019-03-28T19:50:59.989Z,23.75
2019-03-28T19:53:28.657Z,22.87
2019-03-28T19:55:57.363Z,21.87
2019-03-28T19:58:26.174Z,20.20
2019-03-28T20:00:54.888Z,20.23
2019-03-28T20:03:23.656Z,26.20
2019-03-28T20:05:52.411Z,27.98
2019-03-28T20:08:21.150Z,19.85
2019-03-28T20:10:49.883Z,21.02
2019-03-28T20:13:18.538Z,25.23
2019-03-28T20:15:47.263Z,22.82
2019-03-28T20:18:16.005Z,19.07
2019-03-28T20:20:44.666Z,21.20
2019-03-28T20:23:13.317Z,22.30
2019-03-28T20:25:42.907Z,23.22
2019-03-28T20:28:14.204Z,25.27
2019-03-28T20:30:41.979Z,21.35
2019-03-28T20:33:11.716Z,23.90
2019-03-28T20:35:40.640Z,25.72
2019-03-28T20:38:09.357Z,19.07
2019-03-28T20:40:38.107Z,21.20
2019-03-28T20:43:08.046Z,31.30
2019-03-28T20:45:37.137Z,26.05
2019-03-28T20:48:05.958Z,29.15
2019-03-28T20:50:34.768Z,21.75
2019-03-28T20:53:03.487Z,23.30
2019-03-28T20:55:32.176Z,26.73
2019-03-28T20:58:00.819Z,22.13
2019-03-28T21:00:39.034Z,23.32
2019-03-28T21:03:08.466Z,20.12
2019-03-28T21:05:37.263Z,17.85
2019-03-28T21:08:06.370Z,21.52
2019-03-28T21:10:35.308Z,22.15
2019-03-28T21:13:04.156Z,21.68
2019-03-28T21:15:32.904Z,20.23
2019-03-28T21:18:01.585Z,24.82
2019-03-28T21:20:30.230Z,24.55
2019-03-28T21:22:58.973Z,21.80
2019-03-28T21:25:29.567Z,22.62
2019-03-28T21:27:58.164Z,18.45
2019-03-28T21:30:27.414Z,22.60
2019-03-28T21:32:57.790Z,32.48
2019-03-28T21:35:26.958Z,27.93
2019-03-28T21:37:55.690Z,26.15
2019-03-28T21:40:24.348Z,24.67
2019-03-28T21:42:53.070Z,20.52
2019-03-28T21:45:21.795Z,22.80
2019-03-28T21:47:50.945Z,27.22
2019-03-28T21:50:19.849Z,22.95
2019-03-28T21:52:48.498Z,19.92
2019-03-28T21:55:17.399Z,21.55
2019-03-28T21:57:46.059Z,21.42
2019-03-28T22:00:15.372Z,24.55
2019-03-28T22:02:44.031Z,19.65
2019-03-28T22:05:12.839Z,24.27
2019-03-28T22:07:41.495Z,24.82
2019-03-28T22:10:10.506Z,22.95
2019-03-28T22:12:39.154Z,23.83
2019-03-28T22:15:09.171Z,24.65
2019-03-28T22:17:37.894Z,17.05
2019-03-28T22:20:07.252Z,21.68
2019-03-28T22:22:35.978Z,20.97
2019-03-28T22:25:08.227Z,17.75
2019-03-28T22:27:36.881Z,18.65
2019-03-28T22:30:07.184Z,17.62
2019-03-28T22:32:35.846Z,18.82
2019-03-28T22:35:06.552Z,16.45
2019-03-28T22:37:35.209Z,14.93
2019-03-28T22:40:05.775Z,13.70
2019-03-28T22:42:34.429Z,15.95
2019-03-28T22:45:03.534Z,18.35
2019-03-28T22:47:34.880Z,15.40
2019-03-28T22:50:02.689Z,12.63
2019-03-28T22:52:31.420Z,12.93
2019-03-28T22:55:00.145Z,14.93
2019-03-28T22:57:29.110Z,12.90
2019-03-28T22:59:57.844Z,15.38
2019-03-28T23:02:26.622Z,15.95
2019-03-28T23:04:55.287Z,14.33
2019-03-28T23:07:23.952Z,16.02
2019-03-28T23:09:52.660Z,14.78
2019-03-28T23:12:21.288Z,13.28
2019-03-28T23:14:49.903Z,15.38
2019-03-28T23:17:18.533Z,13.83
2019-03-28T23:19:47.153Z,17.27
2019-03-28T23:22:15.783Z,16.60
2019-03-28T23:24:44.439Z,16.85
2019-03-28T23:27:13.035Z,13.62
2019-03-28T23:29:41.671Z,11.78
2019-03-28T23:32:10.382Z,12.88
2019-03-28T23:34:38.991Z,13.55
2019-03-28T23:37:07.650Z,14.23
2019-03-28T23:39:36.311Z,11.12
2019-03-28T23:42:05.030Z,18.15
2019-03-28T23:44:33.686Z,14.75
2019-03-28T23:47:03.162Z,12.03
2019-03-28T23:49:32.485Z,11.45
2019-03-28T23:52:01.211Z,12.65
2019-03-28T23:54:29.868Z,11.35
2019-03-28T23:56:58.520Z,13.55
2019-03-28T23:59:27.180Z,14.35
